Time,TemperatureF,DewpointF,PressureIn,WindDirection,WindDirectionDegrees,WindSpeedMPH,WindSpeedGustMPH,Humidity,HourlyPrecipIn,Conditions,Clouds,dailyrainin,SoftwareType,DateUTC
2013-07-23 00:01:00,52.0,52.0,30.07,NNW,327,4.0,6.0,100,0.00,,,0.00,,2013-07-23 07:01:00,
2013-07-23 00:11:00,52.0,52.0,30.06,NW,305,3.0,5.0,100,0.00,,,0.00,,2013-07-23 07:11:00,
2013-07-23 00:32:00,52.0,52.0,30.06,NW,322,2.0,5.0,100,0.00,,,0.00,,2013-07-23 07:32:00,
2013-07-23 00:42:00,52.0,52.0,30.07,WNW,294,8.0,10.0,100,0.00,,,0.00,,2013-07-23 07:42:00,
2013-07-23 01:01:00,52.0,52.0,30.07,NNW,331,4.0,10.0,100,0.00,,,0.00,,2013-07-23 08:01:00,
2013-07-23 01:11:00,52.0,52.0,30.08,NW,323,3.0,6.0,100,0.00,,,0.00,,2013-07-23 08:11:00,
2013-07-23 01:33:00,52.0,52.0,30.08,NW,304,5.0,7.0,100,0.00,,,0.00,,2013-07-23 08:33:00,
2013-07-23 01:43:00,52.0,52.0,30.08,NW,304,4.0,7.0,100,0.00,,,0.00,,2013-07-23 08:43:00,
2013-07-23 01:52:00,52.0,52.0,30.08,NW,304,4.0,7.0,100,0.00,,,0.00,,2013-07-23 08:52:00,
2013-07-23 02:01:00,52.0,52.0,30.08,NW,313,4.0,8.0,100,0.00,,,0.00,,2013-07-23 09:01:00,
2013-07-23 02:11:00,52.0,52.0,30.08,WNW,301,4.0,10.0,100,0.00,,,0.00,,2013-07-23 09:11:00,
2013-07-23 02:33:00,53.0,53.0,30.08,WNW,293,4.0,6.0,100,0.00,,,0.00,,2013-07-23 09:33:00,
2013-07-23 02:42:00,53.0,53.0,30.08,North,355,1.0,4.0,100,0.00,,,0.00,,2013-07-23 09:42:00,
2013-07-23 02:52:00,53.0,53.0,30.08,North,355,1.0,4.0,100,0.00,,,0.00,,2013-07-23 09:52:00,
2013-07-23 03:01:00,53.0,53.0,30.08,North,355,0.0,2.0,100,0.00,,,0.00,,2013-07-23 10:01:00,
2013-07-23 03:11:00,52.0,52.0,30.07,NW,324,1.0,3.0,100,0.00,,,0.00,,2013-07-23 10:11:00,
2013-07-23 03:21:00,52.0,52.0,30.07,NW,311,2.0,5.0,100,0.00,,,0.00,,2013-07-23 10:21:00,
2013-07-23 03:32:00,52.0,52.0,30.07,NW,311,2.0,5.0,100,0.00,,,0.00,,2013-07-23 10:32:00,
2013-07-23 03:43:00,52.0,52.0,30.08,North,355,2.0,4.0,100,0.00,,,0.00,,2013-07-23 10:43:00,
2013-07-23 04:01:00,52.0,52.0,30.07,North,5,1.0,5.0,100,0.00,,,0.00,,2013-07-23 11:01:00,
2013-07-23 04:11:00,53.0,53.0,30.07,NNE,20,3.0,5.0,100,0.00,,,0.00,,2013-07-23 11:11:00,
2013-07-23 04:21:00,53.0,53.0,30.07,NNE,20,3.0,5.0,100,0.00,,,0.00,,2013-07-23 11:21:00,
2013-07-23 04:32:00,52.0,52.0,30.07,NNE,17,1.0,5.0,100,0.00,,,0.00,,2013-07-23 11:32:00,
2013-07-23 04:43:00,52.0,52.0,30.07,NNE,12,1.0,4.0,100,0.00,,,0.00,,2013-07-23 11:43:00,
2013-07-23 04:52:00,52.0,52.0,30.08,North,355,1.0,3.0,100,0.00,,,0.00,,2013-07-23 11:52:00,
2013-07-23 05:02:00,52.0,52.0,30.08,North,355,1.0,3.0,100,0.00,,,0.00,,2013-07-23 12:02:00,
2013-07-23 05:11:00,52.0,52.0,30.08,ENE,58,2.0,4.0,100,0.00,,,0.00,,2013-07-23 12:11:00,
2013-07-23 05:33:00,52.0,52.0,30.08,NE,40,2.0,4.0,100,0.00,,,0.00,,2013-07-23 12:33:00,
2013-07-23 05:43:00,52.0,52.0,30.08,North,360,2.0,3.0,100,0.00,,,0.00,,2013-07-23 12:43:00,
2013-07-23 06:32:00,51.0,51.0,30.08,WNW,300,4.0,6.0,100,0.00,,,0.00,,2013-07-23 13:32:00,
2013-07-23 06:43:00,51.0,51.0,30.08,NNW,338,3.0,6.0,100,0.00,,,0.00,,2013-07-23 13:43:00,
2013-07-23 06:52:00,51.0,51.0,30.08,NNW,338,3.0,6.0,100,0.00,,,0.00,,2013-07-23 13:52:00,
2013-07-23 07:02:00,51.0,51.0,30.08,NNW,333,2.0,4.0,100,0.00,,,0.00,,2013-07-23 14:02:00,
2013-07-23 07:22:00,51.0,51.0,30.08,NW,320,1.0,3.0,100,0.00,,,0.00,,2013-07-23 14:22:00,
2013-07-23 07:32:00,51.0,51.0,30.08,WNW,296,3.0,5.0,100,0.00,,,0.00,,2013-07-23 14:32:00,
2013-07-23 07:44:00,51.0,51.0,30.08,WNW,298,2.0,4.0,100,0.00,,,0.00,,2013-07-23 14:44:00,
2013-07-23 07:53:00,51.0,51.0,30.08,WNW,298,2.0,4.0,100,0.00,,,0.00,,2013-07-23 14:53:00,
2013-07-23 08:03:00,51.0,51.0,30.09,WNW,290,4.0,6.0,100,0.00,,,0.00,,2013-07-23 15:03:00,
2013-07-23 08:24:00,51.0,51.0,30.09,WNW,294,5.0,9.0,100,0.00,,,0.00,,2013-07-23 15:24:00,
2013-07-23 08:32:00,51.0,51.0,30.09,North,11,2.0,5.0,100,0.00,,,0.00,,2013-07-23 15:32:00,
2013-07-23 08:43:00,51.0,51.0,30.10,NW,312,6.0,10.0,100,0.00,,,0.00,,2013-07-23 15:43:00,
2013-07-23 08:52:00,51.0,51.0,30.10,NW,312,6.0,10.0,100,0.00,,,0.00,,2013-07-23 15:52:00,
2013-07-23 09:01:00,52.0,52.0,30.10,WNW,294,6.0,11.0,100,0.00,,,0.00,,2013-07-23 16:01:00,
2013-07-23 09:12:00,52.0,52.0,30.10,WNW,293,8.0,11.0,100,0.00,,,0.00,,2013-07-23 16:12:00,
2013-07-23 09:33:00,53.0,53.0,30.10,WNW,299,10.0,14.0,100,0.00,,,0.00,,2013-07-23 16:33:00,
2013-07-23 09:43:00,53.0,53.0,30.10,WNW,299,10.0,14.0,100,0.00,,,0.00,,2013-07-23 16:43:00,
2013-07-23 09:52:00,53.0,53.0,30.09,WNW,282,6.0,13.0,100,0.00,,,0.00,,2013-07-23 16:52:00,
2013-07-23 10:02:00,53.0,53.0,30.09,WNW,282,6.0,13.0,100,0.00,,,0.00,,2013-07-23 17:02:00,
2013-07-23 10:11:00,53.0,53.0,30.09,WNW,297,6.0,11.0,100,0.00,,,0.00,,2013-07-23 17:11:00,
2013-07-23 10:21:00,53.0,53.0,30.09,WNW,297,6.0,11.0,100,0.00,,,0.00,,2013-07-23 17:21:00,
2013-07-23 10:32:00,54.0,54.0,30.09,WNW,302,6.0,11.0,100,0.00,,,0.00,,2013-07-23 17:32:00,
2013-07-23 10:42:00,54.0,54.0,30.09,WNW,283,8.0,14.0,100,0.00,,,0.00,,2013-07-23 17:42:00,
2013-07-23 10:53:00,54.0,54.0,30.09,WNW,283,8.0,14.0,100,0.00,,,0.00,,2013-07-23 17:53:00,
2013-07-23 11:02:00,54.0,54.0,30.09,NNW,327,12.0,20.0,100,0.00,,,0.00,,2013-07-23 18:02:00,
2013-07-23 11:11:00,54.0,54.0,30.09,NW,310,14.0,19.0,100,0.00,,,0.00,,2013-07-23 18:11:00,
2013-07-23 11:22:00,54.0,54.0,30.09,NW,310,14.0,19.0,100,0.00,,,0.00,,2013-07-23 18:22:00,
2013-07-23 11:52:00,55.0,55.0,30.09,WNW,290,14.0,20.0,100,0.00,,,0.00,,2013-07-23 18:52:00,
2013-07-23 12:01:00,54.0,54.0,30.09,NW,323,12.0,21.0,100,0.00,,,0.00,,2013-07-23 19:01:00,
2013-07-23 12:32:00,55.0,55.0,30.08,NW,306,13.0,19.0,100,0.00,,,0.00,,2013-07-23 19:32:00,
2013-07-23 12:44:00,54.0,54.0,30.08,WNW,297,10.0,22.0,100,0.00,,,0.00,,2013-07-23 19:44:00,
2013-07-23 12:52:00,54.0,54.0,30.08,WNW,297,10.0,22.0,100,0.00,,,0.00,,2013-07-23 19:52:00,
2013-07-23 13:02:00,55.0,55.0,30.08,WNW,301,14.0,19.0,100,0.00,,,0.00,,2013-07-23 20:02:00,
2013-07-23 13:32:00,56.0,56.0,30.08,WNW,288,12.0,19.0,100,0.00,,,0.00,,2013-07-23 20:32:00,
2013-07-23 13:43:00,56.0,56.0,30.07,WNW,295,15.0,22.0,100,0.00,,,0.00,,2013-07-23 20:43:00,
2013-07-23 14:02:00,56.0,56.0,30.07,NNW,330,14.0,21.0,100,0.00,,,0.00,,2013-07-23 21:02:00,
2013-07-23 14:12:00,56.0,56.0,30.07,NNW,332,11.0,21.0,100,0.00,,,0.00,,2013-07-23 21:12:00,
2013-07-23 14:22:00,56.0,56.0,30.07,NNW,332,11.0,21.0,100,0.00,,,0.00,,2013-07-23 21:22:00,
2013-07-23 14:45:00,56.0,56.0,30.07,NW,309,16.0,25.0,100,0.00,,,0.00,,2013-07-23 21:45:00,
2013-07-23 15:02:00,56.0,56.0,30.06,WNW,294,17.0,27.0,100,0.00,,,0.00,,2013-07-23 22:02:00,
2013-07-23 15:11:00,56.0,56.0,30.07,WNW,300,16.0,29.0,100,0.00,,,0.00,,2013-07-23 22:11:00,
2013-07-23 15:22:00,56.0,56.0,30.07,WNW,300,16.0,29.0,100,0.00,,,0.00,,2013-07-23 22:22:00,
2013-07-23 15:32:00,56.0,56.0,30.07,WNW,298,17.0,28.0,100,0.00,,,0.00,,2013-07-23 22:32:00,
2013-07-23 15:43:00,57.0,57.0,30.06,NNW,332,15.0,27.0,100,0.00,,,0.00,,2013-07-23 22:43:00,
2013-07-23 15:53:00,57.0,57.0,30.06,NNW,332,15.0,27.0,100,0.00,,,0.00,,2013-07-23 22:53:00,
2013-07-23 16:33:00,57.0,57.0,30.06,WNW,297,16.0,26.0,100,0.00,,,0.00,,2013-07-23 23:33:00,
2013-07-23 16:43:00,57.0,57.0,30.06,WNW,298,14.0,23.0,100,0.00,,,0.00,,2013-07-23 23:43:00,
2013-07-23 16:53:00,56.0,56.0,30.06,NW,305,14.0,26.0,100,0.00,,,0.00,,2013-07-23 23:53:00,
2013-07-23 17:02:00,56.0,56.0,30.06,NW,305,14.0,26.0,100,0.00,,,0.00,,2013-07-24 00:02:00,
2013-07-23 17:12:00,56.0,56.0,30.06,NNW,336,15.0,24.0,100,0.00,,,0.00,,2013-07-24 00:12:00,
2013-07-23 17:22:00,56.0,56.0,30.06,NNW,336,15.0,24.0,100,0.00,,,0.00,,2013-07-24 00:22:00,
2013-07-23 17:44:00,55.0,55.0,30.06,WNW,295,16.0,21.0,100,0.00,,,0.00,,2013-07-24 00:44:00,
2013-07-23 17:52:00,55.0,55.0,30.06,North,355,16.0,21.0,100,0.00,,,0.00,,2013-07-24 00:52:00,
2013-07-23 18:01:00,55.0,55.0,30.06,North,355,16.0,21.0,100,0.00,,,0.00,,2013-07-24 01:01:00,
2013-07-23 18:32:00,54.0,54.0,30.06,WNW,300,16.0,25.0,100,0.00,,,0.00,,2013-07-24 01:32:00,
2013-07-23 18:43:00,54.0,54.0,30.06,WNW,302,13.0,20.0,100,0.00,,,0.00,,2013-07-24 01:43:00,
2013-07-23 18:53:00,54.0,54.0,30.06,WNW,302,13.0,20.0,100,0.00,,,0.00,,2013-07-24 01:53:00,
2013-07-23 19:02:00,54.0,54.0,30.07,NNW,331,15.0,24.0,100,0.00,,,0.00,,2013-07-24 02:02:00,
2013-07-23 19:12:00,53.0,53.0,30.08,NW,304,12.0,24.0,100,0.00,,,0.00,,2013-07-24 02:12:00,
2013-07-23 19:21:00,53.0,53.0,30.08,NW,304,12.0,24.0,100,0.00,,,0.00,,2013-07-24 02:21:00,
2013-07-23 19:33:00,53.0,53.0,30.08,NW,309,13.0,21.0,100,0.00,,,0.00,,2013-07-24 02:33:00,
2013-07-23 19:44:00,53.0,53.0,30.08,WNW,288,12.0,20.0,100,0.00,,,0.00,,2013-07-24 02:44:00,
2013-07-23 19:52:00,53.0,53.0,30.08,WNW,288,12.0,20.0,100,0.00,,,0.00,,2013-07-24 02:52:00,
2013-07-23 20:02:00,53.0,53.0,30.08,North,350,11.0,17.0,100,0.00,,,0.00,,2013-07-24 03:02:00,
2013-07-23 20:11:00,53.0,53.0,30.08,NW,315,12.0,16.0,100,0.00,,,0.00,,2013-07-24 03:11:00,
2013-07-23 20:22:00,53.0,53.0,30.08,NW,315,12.0,16.0,100,0.00,,,0.00,,2013-07-24 03:22:00,
2013-07-23 20:43:00,53.0,53.0,30.09,NNW,337,8.0,16.0,100,0.00,,,0.00,,2013-07-24 03:43:00,
2013-07-23 20:53:00,53.0,53.0,30.09,NNW,337,8.0,16.0,100,0.00,,,0.00,,2013-07-24 03:53:00,
2013-07-23 21:01:00,53.0,53.0,30.09,NW,312,11.0,18.0,100,0.00,,,0.00,,2013-07-24 04:01:00,
2013-07-23 21:11:00,52.0,52.0,30.09,NW,315,7.0,16.0,100,0.00,,,0.00,,2013-07-24 04:11:00,
2013-07-23 21:22:00,52.0,52.0,30.09,NW,315,7.0,16.0,100,0.00,,,0.00,,2013-07-24 04:22:00,
2013-07-23 21:32:00,53.0,53.0,30.09,NW,309,8.0,12.0,100,0.00,,,0.00,,2013-07-24 04:32:00,
2013-07-23 21:43:00,52.0,52.0,30.10,NW,311,9.0,14.0,100,0.00,,,0.00,,2013-07-24 04:43:00,
2013-07-23 21:52:00,52.0,52.0,30.10,NW,311,9.0,14.0,100,0.00,,,0.00,,2013-07-24 04:52:00,
2013-07-23 22:02:00,52.0,52.0,30.10,NW,315,6.0,11.0,100,0.00,,,0.00,,2013-07-24 05:02:00,
2013-07-23 22:11:00,52.0,52.0,30.11,WNW,295,5.0,14.0,100,0.00,,,0.00,,2013-07-24 05:11:00,
2013-07-23 22:32:00,52.0,52.0,30.11,WNW,303,5.0,10.0,100,0.00,,,0.00,,2013-07-24 05:32:00,
2013-07-23 22:43:00,52.0,52.0,30.11,NNW,331,5.0,11.0,100,0.00,,,0.00,,2013-07-24 05:43:00,
2013-07-23 22:52:00,52.0,52.0,30.11,NNW,331,5.0,11.0,100,0.00,,,0.00,,2013-07-24 05:52:00,
2013-07-23 23:01:00,52.0,52.0,30.12,NW,307,6.0,10.0,100,0.00,,,0.00,,2013-07-24 06:01:00,
2013-07-23 23:24:00,52.0,52.0,30.11,WNW,300,6.0,9.0,100,0.00,,,0.00,,2013-07-24 06:24:00,
2013-07-23 23:34:00,52.0,52.0,30.11,NNW,338,5.0,9.0,100,0.00,,,0.00,,2013-07-24 06:34:00,
2013-07-23 23:43:00,52.0,52.0,30.11,NW,304,4.0,6.0,100,0.00,,,0.00,,2013-07-24 06:43:00,
2013-07-23 23:53:00,52.0,52.0,30.11,NW,304,4.0,6.0,100,0.00,,,0.00,,2013-07-24 06:53:00,